sensor_id;sensor_type;location;lat;lon;timestamp;P1;durP1;ratioP1;P2;durP2;ratioP2
1545;SDS011;766;51.502;9.752;2023-05-21T00:00:08;11.13;;;8.80;;
1545;SDS011;766;51.502;9.752;2023-05-21T00:02:38;11.30;;;9.30;;
1545;SDS011;766;51.502;9.752;2023-05-21T00:05:07;13.20;;;9.02;;
1545;SDS011;766;51.502;9.752;2023-05-21T00:07:40;11.98;;;9.50;;
1545;SDS011;766;51.502;9.752;2023-05-21T00:10:10;11.73;;;8.88;;
1545;SDS011;766;51.502;9.752;2023-05-21T00:12:38;11.32;;;8.75;;
1545;SDS011;766;51.502;9.752;2023-05-21T00:15:07;13.38;;;8.55;;
1545;SDS011;766;51.502;9.752;2023-05-21T00:17:36;11.18;;;8.40;;
1545;SDS011;766;51.502;9.752;2023-05-21T00:20:06;16.33;;;9.07;;
1545;SDS011;766;51.502;9.752;2023-05-21T00:22:35;14.90;;;9.63;;
1545;SDS011;766;51.502;9.752;2023-05-21T00:25:04;11.65;;;8.38;;
1545;SDS011;766;51.502;9.752;2023-05-21T00:27:34;12.10;;;8.30;;
1545;SDS011;766;51.502;9.752;2023-05-21T00:30:03;13.48;;;9.43;;
1545;SDS011;766;51.502;9.752;2023-05-21T00:32:32;12.48;;;9.52;;
1545;SDS011;766;51.502;9.752;2023-05-21T00:35:00;12.30;;;9.40;;
1545;SDS011;766;51.502;9.752;2023-05-21T00:37:29;14.45;;;10.98;;
1545;SDS011;766;51.502;9.752;2023-05-21T00:39:59;14.60;;;9.60;;
1545;SDS011;766;51.502;9.752;2023-05-21T00:42:28;14.07;;;9.48;;
1545;SDS011;766;51.502;9.752;2023-05-21T00:44:57;12.15;;;9.88;;
1545;SDS011;766;51.502;9.752;2023-05-21T00:47:29;12.75;;;9.75;;
1545;SDS011;766;51.502;9.752;2023-05-21T00:49:57;13.77;;;10.20;;
1545;SDS011;766;51.502;9.752;2023-05-21T00:52:26;13.32;;;9.75;;
1545;SDS011;766;51.502;9.752;2023-05-21T00:54:55;13.35;;;9.10;;
1545;SDS011;766;51.502;9.752;2023-05-21T00:57:24;13.25;;;9.73;;
1545;SDS011;766;51.502;9.752;2023-05-21T00:59:54;13.73;;;9.95;;
1545;SDS011;766;51.502;9.752;2023-05-21T01:02:24;11.65;;;9.23;;
1545;SDS011;766;51.502;9.752;2023-05-21T01:04:55;13.48;;;9.45;;
1545;SDS011;766;51.502;9.752;2023-05-21T01:07:25;17.23;;;9.82;;
1545;SDS011;766;51.502;9.752;2023-05-21T01:09:54;12.55;;;9.75;;
1545;SDS011;766;51.502;9.752;2023-05-21T01:12:23;14.18;;;9.63;;
1545;SDS011;766;51.502;9.752;2023-05-21T01:14:51;13.07;;;9.10;;
1545;SDS011;766;51.502;9.752;2023-05-21T01:17:21;13.35;;;9.18;;
1545;SDS011;766;51.502;9.752;2023-05-21T01:19:52;13.77;;;9.45;;
1545;SDS011;766;51.502;9.752;2023-05-21T01:22:20;14.90;;;11.25;;
1545;SDS011;766;51.502;9.752;2023-05-21T01:24:52;11.98;;;10.00;;
1545;SDS011;766;51.502;9.752;2023-05-21T01:27:21;13.82;;;10.23;;
1545;SDS011;766;51.502;9.752;2023-05-21T01:29:49;12.32;;;9.85;;
1545;SDS011;766;51.502;9.752;2023-05-21T01:32:19;13.45;;;10.60;;
1545;SDS011;766;51.502;9.752;2023-05-21T01:34:55;13.07;;;10.25;;
1545;SDS011;766;51.502;9.752;2023-05-21T01:37:29;13.63;;;9.82;;
1545;SDS011;766;51.502;9.752;2023-05-21T01:40:04;11.98;;;9.32;;
1545;SDS011;766;51.502;9.752;2023-05-21T01:42:38;15.77;;;10.35;;
1545;SDS011;766;51.502;9.752;2023-05-21T01:45:10;12.50;;;9.95;;
1545;SDS011;766;51.502;9.752;2023-05-21T01:47:40;14.73;;;10.57;;
1545;SDS011;766;51.502;9.752;2023-05-21T01:50:13;16.85;;;11.10;;
1545;SDS011;766;51.502;9.752;2023-05-21T01:52:47;14.73;;;10.88;;
1545;SDS011;766;51.502;9.752;2023-05-21T01:55:18;17.33;;;12.40;;
1545;SDS011;766;51.502;9.752;2023-05-21T01:57:50;14.27;;;11.10;;
1545;SDS011;766;51.502;9.752;2023-05-21T02:00:23;15.73;;;12.20;;
1545;SDS011;766;51.502;9.752;2023-05-21T02:02:53;14.23;;;10.88;;
1545;SDS011;766;51.502;9.752;2023-05-21T02:05:22;14.98;;;11.48;;
1545;SDS011;766;51.502;9.752;2023-05-21T02:07:51;15.55;;;12.10;;
1545;SDS011;766;51.502;9.752;2023-05-21T02:10:22;15.20;;;11.63;;
1545;SDS011;766;51.502;9.752;2023-05-21T02:12:50;17.98;;;12.32;;
1545;SDS011;766;51.502;9.752;2023-05-21T02:15:19;17.38;;;12.25;;
1545;SDS011;766;51.502;9.752;2023-05-21T02:17:47;18.00;;;12.45;;
1545;SDS011;766;51.502;9.752;2023-05-21T02:20:17;18.88;;;12.95;;
1545;SDS011;766;51.502;9.752;2023-05-21T02:22:46;17.33;;;12.43;;
1545;SDS011;766;51.502;9.752;2023-05-21T02:25:15;20.63;;;12.60;;
1545;SDS011;766;51.502;9.752;2023-05-21T02:27:46;19.63;;;13.75;;
1545;SDS011;766;51.502;9.752;2023-05-21T02:30:18;18.20;;;13.82;;
1545;SDS011;766;51.502;9.752;2023-05-21T02:32:46;16.20;;;13.10;;
1545;SDS011;766;51.502;9.752;2023-05-21T02:35:15;18.17;;;14.15;;
1545;SDS011;766;51.502;9.752;2023-05-21T02:37:43;17.30;;;13.15;;
1545;SDS011;766;51.502;9.752;2023-05-21T02:40:12;17.42;;;13.43;;
1545;SDS011;766;51.502;9.752;2023-05-21T02:42:41;18.30;;;13.68;;
1545;SDS011;766;51.502;9.752;2023-05-21T02:45:11;17.65;;;13.70;;
1545;SDS011;766;51.502;9.752;2023-05-21T02:47:40;17.80;;;13.32;;
1545;SDS011;766;51.502;9.752;2023-05-21T02:50:08;19.10;;;12.20;;
1545;SDS011;766;51.502;9.752;2023-05-21T02:52:37;16.98;;;11.85;;
1545;SDS011;766;51.502;9.752;2023-05-21T02:55:07;16.00;;;12.50;;
1545;SDS011;766;51.502;9.752;2023-05-21T02:57:36;18.90;;;12.73;;
1545;SDS011;766;51.502;9.752;2023-05-21T03:00:04;17.00;;;13.00;;
1545;SDS011;766;51.502;9.752;2023-05-21T03:02:36;15.38;;;12.38;;
1545;SDS011;766;51.502;9.752;2023-05-21T03:05:06;15.80;;;12.88;;
1545;SDS011;766;51.502;9.752;2023-05-21T03:07:34;17.77;;;12.68;;
1545;SDS011;766;51.502;9.752;2023-05-21T03:10:04;15.88;;;12.23;;
1545;SDS011;766;51.502;9.752;2023-05-21T03:12:33;15.75;;;12.95;;
1545;SDS011;766;51.502;9.752;2023-05-21T03:15:02;16.80;;;12.52;;
1545;SDS011;766;51.502;9.752;2023-05-21T03:17:31;21.17;;;13.38;;
1545;SDS011;766;51.502;9.752;2023-05-21T03:20:00;17.63;;;12.85;;
1545;SDS011;766;51.502;9.752;2023-05-21T03:22:30;18.15;;;13.27;;
1545;SDS011;766;51.502;9.752;2023-05-21T03:24:59;19.13;;;12.95;;
1545;SDS011;766;51.502;9.752;2023-05-21T03:27:28;17.05;;;13.60;;
1545;SDS011;766;51.502;9.752;2023-05-21T03:29:56;24.55;;;13.68;;
1545;SDS011;766;51.502;9.752;2023-05-21T03:32:27;15.50;;;12.93;;
1545;SDS011;766;51.502;9.752;2023-05-21T03:34:56;18.90;;;12.40;;
1545;SDS011;766;51.502;9.752;2023-05-21T03:37:25;18.10;;;13.15;;
1545;SDS011;766;51.502;9.752;2023-05-21T03:39:54;19.95;;;11.98;;
1545;SDS011;766;51.502;9.752;2023-05-21T03:42:22;16.70;;;12.27;;
1545;SDS011;766;51.502;9.752;2023-05-21T03:44:51;16.27;;;11.93;;
1545;SDS011;766;51.502;9.752;2023-05-21T03:47:19;17.20;;;12.10;;
1545;SDS011;766;51.502;9.752;2023-05-21T03:49:47;18.42;;;13.40;;
1545;SDS011;766;51.502;9.752;2023-05-21T03:52:16;16.05;;;12.32;;
1545;SDS011;766;51.502;9.752;2023-05-21T03:54:46;14.05;;;11.73;;
1545;SDS011;766;51.502;9.752;2023-05-21T03:57:14;16.45;;;12.18;;
1545;SDS011;766;51.502;9.752;2023-05-21T03:59:42;17.08;;;11.77;;
1545;SDS011;766;51.502;9.752;2023-05-21T04:02:11;14.90;;;11.95;;
1545;SDS011;766;51.502;9.752;2023-05-21T04:04:39;19.73;;;12.55;;
1545;SDS011;766;51.502;9.752;2023-05-21T04:07:08;19.10;;;12.68;;
1545;SDS011;766;51.502;9.752;2023-05-21T04:09:40;16.42;;;12.07;;
1545;SDS011;766;51.502;9.752;2023-05-21T04:12:09;16.30;;;12.18;;
1545;SDS011;766;51.502;9.752;2023-05-21T04:14:38;15.25;;;12.00;;
1545;SDS011;766;51.502;9.752;2023-05-21T04:17:06;15.15;;;12.13;;
1545;SDS011;766;51.502;9.752;2023-05-21T04:19:35;17.42;;;13.10;;
1545;SDS011;766;51.502;9.752;2023-05-21T04:22:03;17.30;;;13.70;;
1545;SDS011;766;51.502;9.752;2023-05-21T04:24:32;19.50;;;14.18;;
1545;SDS011;766;51.502;9.752;2023-05-21T04:27:00;22.35;;;14.52;;
1545;SDS011;766;51.502;9.752;2023-05-21T04:29:30;14.80;;;12.57;;
1545;SDS011;766;51.502;9.752;2023-05-21T04:31:59;16.70;;;13.25;;
1545;SDS011;766;51.502;9.752;2023-05-21T04:34:27;20.60;;;14.85;;
1545;SDS011;766;51.502;9.752;2023-05-21T04:36:56;21.48;;;13.93;;
1545;SDS011;766;51.502;9.752;2023-05-21T04:39:24;21.67;;;13.40;;
1545;SDS011;766;51.502;9.752;2023-05-21T04:41:53;19.42;;;14.57;;
1545;SDS011;766;51.502;9.752;2023-05-21T04:44:22;15.05;;;12.48;;
1545;SDS011;766;51.502;9.752;2023-05-21T04:46:51;17.85;;;13.57;;
1545;SDS011;766;51.502;9.752;2023-05-21T04:49:20;17.17;;;12.85;;
1545;SDS011;766;51.502;9.752;2023-05-21T04:51:48;18.00;;;13.68;;
1545;SDS011;766;51.502;9.752;2023-05-21T04:54:16;18.17;;;12.27;;
1545;SDS011;766;51.502;9.752;2023-05-21T04:56:45;16.05;;;12.80;;
1545;SDS011;766;51.502;9.752;2023-05-21T04:59:13;19.17;;;14.30;;
1545;SDS011;766;51.502;9.752;2023-05-21T05:01:42;19.02;;;13.63;;
1545;SDS011;766;51.502;9.752;2023-05-21T05:04:13;16.10;;;11.88;;
1545;SDS011;766;51.502;9.752;2023-05-21T05:06:41;19.77;;;12.40;;
1545;SDS011;766;51.502;9.752;2023-05-21T05:09:09;14.90;;;12.57;;
1545;SDS011;766;51.502;9.752;2023-05-21T05:11:38;15.65;;;12.18;;
1545;SDS011;766;51.502;9.752;2023-05-21T05:14:06;14.60;;;12.25;;
1545;SDS011;766;51.502;9.752;2023-05-21T05:16:34;18.02;;;12.50;;
1545;SDS011;766;51.502;9.752;2023-05-21T05:19:03;16.48;;;11.80;;
1545;SDS011;766;51.502;9.752;2023-05-21T05:21:33;17.85;;;13.52;;
1545;SDS011;766;51.502;9.752;2023-05-21T05:24:02;19.13;;;13.80;;
1545;SDS011;766;51.502;9.752;2023-05-21T05:26:31;23.60;;;13.90;;
1545;SDS011;766;51.502;9.752;2023-05-21T05:29:01;17.58;;;13.98;;
1545;SDS011;766;51.502;9.752;2023-05-21T05:31:31;16.23;;;13.63;;
1545;SDS011;766;51.502;9.752;2023-05-21T05:33:59;20.85;;;15.32;;
1545;SDS011;766;51.502;9.752;2023-05-21T05:36:28;20.30;;;15.18;;
1545;SDS011;766;51.502;9.752;2023-05-21T05:38:58;24.10;;;15.00;;
1545;SDS011;766;51.502;9.752;2023-05-21T05:41:26;20.52;;;14.55;;
1545;SDS011;766;51.502;9.752;2023-05-21T05:43:54;15.65;;;13.20;;
1545;SDS011;766;51.502;9.752;2023-05-21T05:46:24;19.08;;;14.50;;
1545;SDS011;766;51.502;9.752;2023-05-21T05:48:52;19.13;;;14.68;;
1545;SDS011;766;51.502;9.752;2023-05-21T05:51:20;19.05;;;13.98;;
1545;SDS011;766;51.502;9.752;2023-05-21T05:53:49;17.00;;;14.18;;
1545;SDS011;766;51.502;9.752;2023-05-21T05:56:18;20.67;;;14.48;;
1545;SDS011;766;51.502;9.752;2023-05-21T05:58:47;23.20;;;15.20;;
1545;SDS011;766;51.502;9.752;2023-05-21T06:01:15;18.35;;;14.35;;
1545;SDS011;766;51.502;9.752;2023-05-21T06:03:44;17.70;;;13.98;;
1545;SDS011;766;51.502;9.752;2023-05-21T06:06:13;16.00;;;13.40;;
1545;SDS011;766;51.502;9.752;2023-05-21T06:08:42;17.05;;;14.55;;
1545;SDS011;766;51.502;9.752;2023-05-21T06:11:11;18.52;;;14.57;;
1545;SDS011;766;51.502;9.752;2023-05-21T06:13:43;18.75;;;14.95;;
1545;SDS011;766;51.502;9.752;2023-05-21T06:16:12;18.00;;;14.10;;
1545;SDS011;766;51.502;9.752;2023-05-21T06:18:41;20.80;;;15.25;;
1545;SDS011;766;51.502;9.752;2023-05-21T06:21:10;19.23;;;14.27;;
1545;SDS011;766;51.502;9.752;2023-05-21T06:23:38;20.92;;;14.50;;
1545;SDS011;766;51.502;9.752;2023-05-21T06:26:07;18.48;;;14.10;;
1545;SDS011;766;51.502;9.752;2023-05-21T06:28:35;20.38;;;15.93;;
1545;SDS011;766;51.502;9.752;2023-05-21T06:31:05;20.98;;;15.27;;
1545;SDS011;766;51.502;9.752;2023-05-21T06:33:33;19.63;;;14.70;;
1545;SDS011;766;51.502;9.752;2023-05-21T06:36:02;18.20;;;14.27;;
1545;SDS011;766;51.502;9.752;2023-05-21T06:38:31;19.88;;;14.77;;
1545;SDS011;766;51.502;9.752;2023-05-21T06:40:59;22.30;;;15.73;;
1545;SDS011;766;51.502;9.752;2023-05-21T06:43:32;24.15;;;17.25;;
1545;SDS011;766;51.502;9.752;2023-05-21T06:46:43;17.15;;;14.50;;
1545;SDS011;766;51.502;9.752;2023-05-21T06:49:12;22.40;;;15.88;;
1545;SDS011;766;51.502;9.752;2023-05-21T06:51:40;26.63;;;16.38;;
1545;SDS011;766;51.502;9.752;2023-05-21T06:54:09;20.63;;;15.70;;
1545;SDS011;766;51.502;9.752;2023-05-21T06:56:37;19.98;;;15.82;;
1545;SDS011;766;51.502;9.752;2023-05-21T06:59:05;22.42;;;16.60;;
1545;SDS011;766;51.502;9.752;2023-05-21T07:01:34;25.08;;;17.75;;
1545;SDS011;766;51.502;9.752;2023-05-21T07:04:04;23.00;;;17.38;;
1545;SDS011;766;51.502;9.752;2023-05-21T07:06:32;21.85;;;18.13;;
1545;SDS011;766;51.502;9.752;2023-05-21T07:09:01;21.90;;;18.05;;
1545;SDS011;766;51.502;9.752;2023-05-21T07:11:31;20.80;;;16.73;;
1545;SDS011;766;51.502;9.752;2023-05-21T07:14:00;20.73;;;16.33;;
1545;SDS011;766;51.502;9.752;2023-05-21T07:16:29;23.50;;;17.40;;
1545;SDS011;766;51.502;9.752;2023-05-21T07:18:57;24.02;;;19.05;;
1545;SDS011;766;51.502;9.752;2023-05-21T07:21:27;24.00;;;17.75;;
1545;SDS011;766;51.502;9.752;2023-05-21T07:23:56;21.88;;;17.98;;
1545;SDS011;766;51.502;9.752;2023-05-21T07:26:24;21.27;;;17.08;;
1545;SDS011;766;51.502;9.752;2023-05-21T07:28:53;21.75;;;17.27;;
1545;SDS011;766;51.502;9.752;2023-05-21T07:31:22;23.25;;;18.25;;
1545;SDS011;766;51.502;9.752;2023-05-21T07:33:51;21.00;;;17.75;;
1545;SDS011;766;51.502;9.752;2023-05-21T07:36:19;18.70;;;15.85;;
1545;SDS011;766;51.502;9.752;2023-05-21T07:38:49;19.75;;;16.13;;
1545;SDS011;766;51.502;9.752;2023-05-21T07:41:18;20.00;;;16.00;;
1545;SDS011;766;51.502;9.752;2023-05-21T07:44:48;20.27;;;15.57;;
1545;SDS011;766;51.502;9.752;2023-05-21T07:47:00;22.65;;;17.05;;
1545;SDS011;766;51.502;9.752;2023-05-21T07:49:28;21.70;;;17.05;;
1545;SDS011;766;51.502;9.752;2023-05-21T07:51:57;23.88;;;18.27;;
1545;SDS011;766;51.502;9.752;2023-05-21T07:54:27;19.92;;;17.02;;
1545;SDS011;766;51.502;9.752;2023-05-21T07:56:56;22.98;;;18.13;;
1545;SDS011;766;51.502;9.752;2023-05-21T07:59:24;20.60;;;17.55;;
1545;SDS011;766;51.502;9.752;2023-05-21T08:01:52;21.52;;;17.48;;
1545;SDS011;766;51.502;9.752;2023-05-21T08:04:21;21.98;;;17.40;;
1545;SDS011;766;51.502;9.752;2023-05-21T08:06:49;19.23;;;16.58;;
1545;SDS011;766;51.502;9.752;2023-05-21T08:09:19;19.90;;;17.05;;
1545;SDS011;766;51.502;9.752;2023-05-21T08:11:49;19.80;;;15.77;;
1545;SDS011;766;51.502;9.752;2023-05-21T08:14:18;21.65;;;17.50;;
1545;SDS011;766;51.502;9.752;2023-05-21T08:16:47;19.02;;;16.85;;
1545;SDS011;766;51.502;9.752;2023-05-21T08:19:15;20.95;;;16.42;;
1545;SDS011;766;51.502;9.752;2023-05-21T08:21:44;20.88;;;17.17;;
1545;SDS011;766;51.502;9.752;2023-05-21T08:24:15;23.02;;;17.55;;
1545;SDS011;766;51.502;9.752;2023-05-21T08:26:44;28.10;;;17.67;;
1545;SDS011;766;51.502;9.752;2023-05-21T08:29:16;19.70;;;16.08;;
1545;SDS011;766;51.502;9.752;2023-05-21T08:31:44;21.73;;;15.65;;
1545;SDS011;766;51.502;9.752;2023-05-21T08:34:12;21.15;;;16.63;;
1545;SDS011;766;51.502;9.752;2023-05-21T08:36:41;20.52;;;15.18;;
1545;SDS011;766;51.502;9.752;2023-05-21T08:39:11;20.15;;;15.88;;
1545;SDS011;766;51.502;9.752;2023-05-21T08:41:40;20.85;;;16.33;;
1545;SDS011;766;51.502;9.752;2023-05-21T08:44:19;17.73;;;15.77;;
1545;SDS011;766;51.502;9.752;2023-05-21T08:46:50;18.85;;;16.42;;
1545;SDS011;766;51.502;9.752;2023-05-21T08:49:21;29.52;;;16.92;;
1545;SDS011;766;51.502;9.752;2023-05-21T08:51:53;21.10;;;16.83;;
1545;SDS011;766;51.502;9.752;2023-05-21T08:54:22;21.42;;;17.25;;
1545;SDS011;766;51.502;9.752;2023-05-21T08:56:50;20.17;;;16.60;;
1545;SDS011;766;51.502;9.752;2023-05-21T08:59:21;19.50;;;15.95;;
1545;SDS011;766;51.502;9.752;2023-05-21T09:01:50;19.48;;;16.60;;
1545;SDS011;766;51.502;9.752;2023-05-21T09:04:19;22.38;;;17.30;;
1545;SDS011;766;51.502;9.752;2023-05-21T09:06:48;21.40;;;16.50;;
1545;SDS011;766;51.502;9.752;2023-05-21T09:09:20;19.38;;;15.75;;
1545;SDS011;766;51.502;9.752;2023-05-21T09:11:52;18.25;;;15.85;;
1545;SDS011;766;51.502;9.752;2023-05-21T09:14:22;18.63;;;15.88;;
1545;SDS011;766;51.502;9.752;2023-05-21T09:16:51;20.08;;;15.73;;
1545;SDS011;766;51.502;9.752;2023-05-21T09:19:19;18.15;;;15.38;;
1545;SDS011;766;51.502;9.752;2023-05-21T09:21:50;19.17;;;16.23;;
1545;SDS011;766;51.502;9.752;2023-05-21T09:24:20;18.95;;;16.30;;
1545;SDS011;766;51.502;9.752;2023-05-21T09:26:49;21.00;;;16.48;;
1545;SDS011;766;51.502;9.752;2023-05-21T09:29:18;20.98;;;17.08;;
1545;SDS011;766;51.502;9.752;2023-05-21T09:31:48;21.98;;;16.60;;
1545;SDS011;766;51.502;9.752;2023-05-21T09:51:43;21.92;;;16.33;;
1545;SDS011;766;51.502;9.752;2023-05-21T09:54:12;20.60;;;16.50;;
1545;SDS011;766;51.502;9.752;2023-05-21T09:56:40;20.00;;;17.77;;
1545;SDS011;766;51.502;9.752;2023-05-21T09:59:09;18.33;;;15.45;;
1545;SDS011;766;51.502;9.752;2023-05-21T10:01:38;19.98;;;14.93;;
1545;SDS011;766;51.502;9.752;2023-05-21T10:04:06;18.70;;;15.95;;
1545;SDS011;766;51.502;9.752;2023-05-21T10:06:36;17.35;;;15.00;;
1545;SDS011;766;51.502;9.752;2023-05-21T10:09:10;17.00;;;14.60;;
1545;SDS011;766;51.502;9.752;2023-05-21T10:11:42;21.33;;;15.63;;
1545;SDS011;766;51.502;9.752;2023-05-21T10:14:13;17.52;;;15.25;;
1545;SDS011;766;51.502;9.752;2023-05-21T10:16:44;17.10;;;14.63;;
1545;SDS011;766;51.502;9.752;2023-05-21T10:19:14;16.58;;;14.85;;
1545;SDS011;766;51.502;9.752;2023-05-21T10:21:43;17.50;;;14.68;;
1545;SDS011;766;51.502;9.752;2023-05-21T10:24:14;17.27;;;14.55;;
1545;SDS011;766;51.502;9.752;2023-05-21T10:26:44;19.05;;;15.23;;
1545;SDS011;766;51.502;9.752;2023-05-21T10:29:13;18.27;;;15.60;;
1545;SDS011;766;51.502;9.752;2023-05-21T10:31:45;16.55;;;14.38;;
1545;SDS011;766;51.502;9.752;2023-05-21T10:34:15;16.85;;;15.05;;
1545;SDS011;766;51.502;9.752;2023-05-21T10:36:44;17.38;;;13.95;;
1545;SDS011;766;51.502;9.752;2023-05-21T10:39:16;17.63;;;13.52;;
1545;SDS011;766;51.502;9.752;2023-05-21T10:41:48;16.48;;;14.15;;
1545;SDS011;766;51.502;9.752;2023-05-21T10:44:26;17.15;;;14.98;;
1545;SDS011;766;51.502;9.752;2023-05-21T10:47:15;17.48;;;14.88;;
1545;SDS011;766;51.502;9.752;2023-05-21T10:50:15;19.73;;;15.73;;
1545;SDS011;766;51.502;9.752;2023-05-21T10:53:00;17.98;;;14.45;;
1545;SDS011;766;51.502;9.752;2023-05-21T10:55:41;17.23;;;15.18;;
1545;SDS011;766;51.502;9.752;2023-05-21T10:58:27;15.82;;;14.15;;
1545;SDS011;766;51.502;9.752;2023-05-21T11:01:11;17.50;;;14.38;;
1545;SDS011;766;51.502;9.752;2023-05-21T11:03:42;17.48;;;14.43;;
1545;SDS011;766;51.502;9.752;2023-05-21T11:06:10;18.15;;;14.07;;
1545;SDS011;766;51.502;9.752;2023-05-21T11:08:49;15.93;;;13.95;;
1545;SDS011;766;51.502;9.752;2023-05-21T11:11:42;16.60;;;13.68;;
1545;SDS011;766;51.502;9.752;2023-05-21T11:14:31;16.40;;;13.60;;
1545;SDS011;766;51.502;9.752;2023-05-21T11:17:02;17.38;;;13.82;;
1545;SDS011;766;51.502;9.752;2023-05-21T11:19:33;15.75;;;14.13;;
1545;SDS011;766;51.502;9.752;2023-05-21T11:22:06;16.27;;;14.15;;
1545;SDS011;766;51.502;9.752;2023-05-21T11:24:36;18.75;;;14.30;;
1545;SDS011;766;51.502;9.752;2023-05-21T11:27:08;17.70;;;13.52;;
1545;SDS011;766;51.502;9.752;2023-05-21T11:29:38;15.18;;;13.15;;
1545;SDS011;766;51.502;9.752;2023-05-21T11:32:09;16.33;;;14.60;;
1545;SDS011;766;51.502;9.752;2023-05-21T11:34:42;14.75;;;13.32;;
1545;SDS011;766;51.502;9.752;2023-05-21T11:37:22;16.67;;;14.20;;
1545;SDS011;766;51.502;9.752;2023-05-21T11:39:53;17.58;;;14.20;;
1545;SDS011;766;51.502;9.752;2023-05-21T11:42:30;15.82;;;13.98;;
1545;SDS011;766;51.502;9.752;2023-05-21T11:45:00;15.30;;;13.70;;
1545;SDS011;766;51.502;9.752;2023-05-21T11:47:30;14.95;;;13.45;;
1545;SDS011;766;51.502;9.752;2023-05-21T11:49:59;15.32;;;12.77;;
1545;SDS011;766;51.502;9.752;2023-05-21T11:52:28;16.60;;;13.48;;
1545;SDS011;766;51.502;9.752;2023-05-21T11:54:58;17.70;;;12.82;;
1545;SDS011;766;51.502;9.752;2023-05-21T11:57:28;14.85;;;13.13;;
1545;SDS011;766;51.502;9.752;2023-05-21T11:59:58;14.40;;;12.98;;
1545;SDS011;766;51.502;9.752;2023-05-21T12:02:29;16.33;;;13.23;;
1545;SDS011;766;51.502;9.752;2023-05-21T12:04:59;15.73;;;13.70;;
1545;SDS011;766;51.502;9.752;2023-05-21T12:07:27;13.93;;;12.48;;
1545;SDS011;766;51.502;9.752;2023-05-21T12:09:56;15.35;;;13.00;;
1545;SDS011;766;51.502;9.752;2023-05-21T12:12:27;17.05;;;13.73;;
1545;SDS011;766;51.502;9.752;2023-05-21T12:15:17;14.65;;;13.15;;
1545;SDS011;766;51.502;9.752;2023-05-21T12:17:48;15.57;;;12.98;;
1545;SDS011;766;51.502;9.752;2023-05-21T12:20:18;14.32;;;12.50;;
1545;SDS011;766;51.502;9.752;2023-05-21T12:22:47;16.38;;;12.65;;
1545;SDS011;766;51.502;9.752;2023-05-21T12:25:16;13.93;;;12.20;;
1545;SDS011;766;51.502;9.752;2023-05-21T12:27:47;13.32;;;11.88;;
1545;SDS011;766;51.502;9.752;2023-05-21T12:30:19;13.07;;;11.68;;
1545;SDS011;766;51.502;9.752;2023-05-21T12:32:48;13.93;;;12.02;;
1545;SDS011;766;51.502;9.752;2023-05-21T12:35:20;13.10;;;11.57;;
1545;SDS011;766;51.502;9.752;2023-05-21T12:37:50;14.95;;;12.20;;
1545;SDS011;766;51.502;9.752;2023-05-21T12:40:18;14.40;;;12.02;;
1545;SDS011;766;51.502;9.752;2023-05-21T12:42:48;16.92;;;11.48;;
1545;SDS011;766;51.502;9.752;2023-05-21T12:45:21;13.15;;;11.25;;
1545;SDS011;766;51.502;9.752;2023-05-21T12:47:49;12.43;;;11.18;;
1545;SDS011;766;51.502;9.752;2023-05-21T12:50:21;14.48;;;12.23;;
1545;SDS011;766;51.502;9.752;2023-05-21T12:52:53;14.75;;;11.68;;
1545;SDS011;766;51.502;9.752;2023-05-21T12:55:23;15.43;;;12.40;;
1545;SDS011;766;51.502;9.752;2023-05-21T12:58:01;14.35;;;11.77;;
1545;SDS011;766;51.502;9.752;2023-05-21T13:00:34;12.18;;;10.85;;
1545;SDS011;766;51.502;9.752;2023-05-21T13:03:04;14.50;;;11.60;;
1545;SDS011;766;51.502;9.752;2023-05-21T13:05:33;12.70;;;10.90;;
1545;SDS011;766;51.502;9.752;2023-05-21T13:08:01;13.75;;;11.63;;
1545;SDS011;766;51.502;9.752;2023-05-21T13:10:29;13.90;;;11.02;;
1545;SDS011;766;51.502;9.752;2023-05-21T13:12:58;12.93;;;11.48;;
1545;SDS011;766;51.502;9.752;2023-05-21T13:15:27;16.38;;;11.25;;
1545;SDS011;766;51.502;9.752;2023-05-21T13:17:57;14.80;;;10.43;;
1545;SDS011;766;51.502;9.752;2023-05-21T13:20:27;12.43;;;11.05;;
1545;SDS011;766;51.502;9.752;2023-05-21T13:22:55;11.85;;;10.50;;
1545;SDS011;766;51.502;9.752;2023-05-21T13:25:24;12.63;;;10.40;;
1545;SDS011;766;51.502;9.752;2023-05-21T13:27:55;11.50;;;10.35;;
1545;SDS011;766;51.502;9.752;2023-05-21T13:30:24;11.43;;;10.13;;
1545;SDS011;766;51.502;9.752;2023-05-21T13:32:53;10.88;;;9.77;;
1545;SDS011;766;51.502;9.752;2023-05-21T13:35:23;11.55;;;10.20;;
1545;SDS011;766;51.502;9.752;2023-05-21T13:37:51;12.50;;;10.20;;
1545;SDS011;766;51.502;9.752;2023-05-21T13:40:20;11.35;;;9.45;;
1545;SDS011;766;51.502;9.752;2023-05-21T13:42:49;11.93;;;9.90;;
1545;SDS011;766;51.502;9.752;2023-05-21T13:45:18;11.77;;;10.52;;
1545;SDS011;766;51.502;9.752;2023-05-21T13:47:46;11.63;;;9.20;;
1545;SDS011;766;51.502;9.752;2023-05-21T13:50:15;12.55;;;9.98;;
1545;SDS011;766;51.502;9.752;2023-05-21T13:52:45;13.38;;;9.77;;
1545;SDS011;766;51.502;9.752;2023-05-21T13:55:13;14.40;;;9.90;;
1545;SDS011;766;51.502;9.752;2023-05-21T13:57:42;13.48;;;9.55;;
1545;SDS011;766;51.502;9.752;2023-05-21T14:00:12;12.43;;;10.90;;
1545;SDS011;766;51.502;9.752;2023-05-21T14:02:42;12.32;;;10.00;;
1545;SDS011;766;51.502;9.752;2023-05-21T14:05:11;12.95;;;9.85;;
1545;SDS011;766;51.502;9.752;2023-05-21T14:07:44;10.50;;;9.45;;
1545;SDS011;766;51.502;9.752;2023-05-21T14:10:16;13.63;;;10.07;;
1545;SDS011;766;51.502;9.752;2023-05-21T14:12:45;15.48;;;10.48;;
1545;SDS011;766;51.502;9.752;2023-05-21T14:15:14;13.95;;;10.07;;
1545;SDS011;766;51.502;9.752;2023-05-21T14:17:42;11.77;;;10.57;;
1545;SDS011;766;51.502;9.752;2023-05-21T14:20:11;14.15;;;9.95;;
1545;SDS011;766;51.502;9.752;2023-05-21T14:22:39;11.82;;;10.43;;
1545;SDS011;766;51.502;9.752;2023-05-21T14:25:10;12.65;;;10.25;;
1545;SDS011;766;51.502;9.752;2023-05-21T14:27:38;11.73;;;10.52;;
1545;SDS011;766;51.502;9.752;2023-05-21T14:30:07;15.23;;;10.65;;
1545;SDS011;766;51.502;9.752;2023-05-21T14:32:36;17.02;;;11.40;;
1545;SDS011;766;51.502;9.752;2023-05-21T14:35:05;13.52;;;11.65;;
1545;SDS011;766;51.502;9.752;2023-05-21T14:37:33;13.27;;;11.45;;
1545;SDS011;766;51.502;9.752;2023-05-21T14:40:02;16.90;;;11.55;;
1545;SDS011;766;51.502;9.752;2023-05-21T14:42:34;13.35;;;11.30;;
1545;SDS011;766;51.502;9.752;2023-05-21T14:45:03;12.43;;;10.13;;
1545;SDS011;766;51.502;9.752;2023-05-21T14:47:44;11.68;;;10.10;;
1545;SDS011;766;51.502;9.752;2023-05-21T14:50:14;15.82;;;10.93;;
1545;SDS011;766;51.502;9.752;2023-05-21T14:52:43;11.77;;;10.57;;
1545;SDS011;766;51.502;9.752;2023-05-21T14:55:12;13.02;;;10.15;;
1545;SDS011;766;51.502;9.752;2023-05-21T14:57:43;12.88;;;10.68;;
1545;SDS011;766;51.502;9.752;2023-05-21T15:00:12;11.90;;;10.65;;
1545;SDS011;766;51.502;9.752;2023-05-21T15:02:41;15.35;;;10.70;;
1545;SDS011;766;51.502;9.752;2023-05-21T15:05:10;13.32;;;11.65;;
1545;SDS011;766;51.502;9.752;2023-05-21T15:07:38;12.63;;;11.05;;
1545;SDS011;766;51.502;9.752;2023-05-21T15:10:07;15.05;;;10.48;;
1545;SDS011;766;51.502;9.752;2023-05-21T15:12:36;13.90;;;11.10;;
1545;SDS011;766;51.502;9.752;2023-05-21T15:15:06;12.88;;;11.18;;
1545;SDS011;766;51.502;9.752;2023-05-21T15:17:35;13.18;;;11.05;;
1545;SDS011;766;51.502;9.752;2023-05-21T15:20:04;12.52;;;10.55;;
1545;SDS011;766;51.502;9.752;2023-05-21T15:22:35;12.95;;;11.13;;
1545;SDS011;766;51.502;9.752;2023-05-21T15:25:04;12.25;;;10.95;;
1545;SDS011;766;51.502;9.752;2023-05-21T15:27:33;18.25;;;10.57;;
1545;SDS011;766;51.502;9.752;2023-05-21T15:30:02;12.15;;;10.18;;
1545;SDS011;766;51.502;9.752;2023-05-21T15:32:33;11.95;;;10.75;;
1545;SDS011;766;51.502;9.752;2023-05-21T15:35:01;13.70;;;10.75;;
1545;SDS011;766;51.502;9.752;2023-05-21T15:37:30;12.65;;;10.35;;